sensor_id;sensor_type;location;lat;lon;timestamp;P1;durP1;ratioP1;P2;durP2;ratioP2
41946;SDS011;27638;42.184;24.848;2024-03-08T00:01:47;26.88;;;15.05;;
41946;SDS011;27638;42.184;24.848;2024-03-08T00:04:13;26.65;;;13.20;;
41946;SDS011;27638;42.184;24.848;2024-03-08T00:06:40;22.38;;;13.15;;
41946;SDS011;27638;42.184;24.848;2024-03-08T00:09:05;25.45;;;13.45;;
41946;SDS011;27638;42.184;24.848;2024-03-08T00:11:33;30.17;;;13.30;;
41946;SDS011;27638;42.184;24.848;2024-03-08T00:13:59;26.27;;;14.95;;
41946;SDS011;27638;42.184;24.848;2024-03-08T00:16:24;27.30;;;13.98;;
41946;SDS011;27638;42.184;24.848;2024-03-08T00:18:50;27.27;;;13.77;;
41946;SDS011;27638;42.184;24.848;2024-03-08T00:21:15;24.17;;;13.82;;
41946;SDS011;27638;42.184;24.848;2024-03-08T00:23:41;29.08;;;14.63;;
41946;SDS011;27638;42.184;24.848;2024-03-08T00:26:06;27.83;;;15.07;;
41946;SDS011;27638;42.184;24.848;2024-03-08T00:28:32;26.70;;;14.23;;
41946;SDS011;27638;42.184;24.848;2024-03-08T00:30:59;25.55;;;13.18;;
41946;SDS011;27638;42.184;24.848;2024-03-08T00:33:25;27.45;;;15.00;;
41946;SDS011;27638;42.184;24.848;2024-03-08T00:35:50;26.38;;;13.15;;
41946;SDS011;27638;42.184;24.848;2024-03-08T00:38:16;22.90;;;11.93;;
41946;SDS011;27638;42.184;24.848;2024-03-08T00:40:43;24.25;;;13.43;;
41946;SDS011;27638;42.184;24.848;2024-03-08T00:43:09;26.58;;;12.07;;
41946;SDS011;27638;42.184;24.848;2024-03-08T00:45:34;24.52;;;13.88;;
41946;SDS011;27638;42.184;24.848;2024-03-08T00:48:02;23.80;;;12.70;;
41946;SDS011;27638;42.184;24.848;2024-03-08T00:50:28;23.75;;;12.55;;
41946;SDS011;27638;42.184;24.848;2024-03-08T00:52:53;22.02;;;13.73;;
41946;SDS011;27638;42.184;24.848;2024-03-08T00:55:19;24.00;;;13.30;;
41946;SDS011;27638;42.184;24.848;2024-03-08T00:57:45;28.02;;;13.88;;
41946;SDS011;27638;42.184;24.848;2024-03-08T01:00:10;26.30;;;14.18;;
41946;SDS011;27638;42.184;24.848;2024-03-08T01:02:37;29.02;;;13.65;;
41946;SDS011;27638;42.184;24.848;2024-03-08T01:05:04;25.67;;;14.00;;
41946;SDS011;27638;42.184;24.848;2024-03-08T01:07:34;26.20;;;13.65;;
41946;SDS011;27638;42.184;24.848;2024-03-08T01:10:01;29.48;;;13.65;;
41946;SDS011;27638;42.184;24.848;2024-03-08T01:12:28;25.42;;;13.80;;
41946;SDS011;27638;42.184;24.848;2024-03-08T01:14:54;27.05;;;13.63;;
41946;SDS011;27638;42.184;24.848;2024-03-08T01:17:20;30.55;;;14.73;;
41946;SDS011;27638;42.184;24.848;2024-03-08T01:19:45;28.35;;;13.43;;
41946;SDS011;27638;42.184;24.848;2024-03-08T01:22:11;27.85;;;13.50;;
41946;SDS011;27638;42.184;24.848;2024-03-08T01:24:36;24.55;;;13.48;;
41946;SDS011;27638;42.184;24.848;2024-03-08T01:27:02;24.48;;;13.95;;
41946;SDS011;27638;42.184;24.848;2024-03-08T01:29:28;28.25;;;13.63;;
41946;SDS011;27638;42.184;24.848;2024-03-08T01:31:55;27.33;;;15.05;;
41946;SDS011;27638;42.184;24.848;2024-03-08T01:34:21;27.90;;;15.13;;
41946;SDS011;27638;42.184;24.848;2024-03-08T01:36:47;27.88;;;15.43;;
41946;SDS011;27638;42.184;24.848;2024-03-08T01:39:13;28.70;;;14.80;;
41946;SDS011;27638;42.184;24.848;2024-03-08T01:41:39;28.85;;;14.60;;
41946;SDS011;27638;42.184;24.848;2024-03-08T01:44:05;28.90;;;13.98;;
41946;SDS011;27638;42.184;24.848;2024-03-08T01:46:32;27.40;;;13.98;;
41946;SDS011;27638;42.184;24.848;2024-03-08T01:48:59;28.50;;;14.38;;
41946;SDS011;27638;42.184;24.848;2024-03-08T01:51:28;26.48;;;12.70;;
41946;SDS011;27638;42.184;24.848;2024-03-08T01:53:56;25.45;;;13.35;;
41946;SDS011;27638;42.184;24.848;2024-03-08T01:56:24;26.98;;;14.95;;
41946;SDS011;27638;42.184;24.848;2024-03-08T01:58:51;30.23;;;15.35;;
41946;SDS011;27638;42.184;24.848;2024-03-08T02:01:17;29.38;;;15.48;;
41946;SDS011;27638;42.184;24.848;2024-03-08T02:03:44;26.30;;;14.07;;
41946;SDS011;27638;42.184;24.848;2024-03-08T02:06:11;31.02;;;14.07;;
41946;SDS011;27638;42.184;24.848;2024-03-08T02:08:39;31.65;;;16.25;;
41946;SDS011;27638;42.184;24.848;2024-03-08T02:11:06;23.23;;;12.07;;
41946;SDS011;27638;42.184;24.848;2024-03-08T02:13:32;26.20;;;14.13;;
41946;SDS011;27638;42.184;24.848;2024-03-08T02:15:59;27.17;;;15.40;;
41946;SDS011;27638;42.184;24.848;2024-03-08T02:18:25;30.98;;;16.60;;
41946;SDS011;27638;42.184;24.848;2024-03-08T02:20:52;31.65;;;15.98;;
41946;SDS011;27638;42.184;24.848;2024-03-08T02:23:19;31.90;;;15.63;;
41946;SDS011;27638;42.184;24.848;2024-03-08T02:25:45;30.05;;;14.20;;
41946;SDS011;27638;42.184;24.848;2024-03-08T02:28:12;30.95;;;15.18;;
41946;SDS011;27638;42.184;24.848;2024-03-08T02:30:38;30.05;;;16.55;;
41946;SDS011;27638;42.184;24.848;2024-03-08T02:33:04;33.38;;;15.93;;
41946;SDS011;27638;42.184;24.848;2024-03-08T02:35:31;32.45;;;16.67;;
41946;SDS011;27638;42.184;24.848;2024-03-08T02:37:57;34.67;;;15.70;;
41946;SDS011;27638;42.184;24.848;2024-03-08T02:40:23;30.67;;;15.93;;
41946;SDS011;27638;42.184;24.848;2024-03-08T02:42:49;32.67;;;17.33;;
41946;SDS011;27638;42.184;24.848;2024-03-08T02:45:14;35.17;;;17.00;;
41946;SDS011;27638;42.184;24.848;2024-03-08T02:47:40;29.80;;;15.40;;
41946;SDS011;27638;42.184;24.848;2024-03-08T02:50:06;33.50;;;15.43;;
41946;SDS011;27638;42.184;24.848;2024-03-08T02:52:35;33.38;;;16.83;;
41946;SDS011;27638;42.184;24.848;2024-03-08T02:55:04;30.33;;;15.43;;
41946;SDS011;27638;42.184;24.848;2024-03-08T02:57:31;30.08;;;15.60;;
41946;SDS011;27638;42.184;24.848;2024-03-08T02:59:57;31.50;;;15.32;;
41946;SDS011;27638;42.184;24.848;2024-03-08T03:02:24;26.83;;;15.57;;
41946;SDS011;27638;42.184;24.848;2024-03-08T03:04:51;26.90;;;15.55;;
41946;SDS011;27638;42.184;24.848;2024-03-08T03:07:17;27.42;;;15.50;;
41946;SDS011;27638;42.184;24.848;2024-03-08T03:09:43;28.40;;;14.98;;
41946;SDS011;27638;42.184;24.848;2024-03-08T03:12:08;27.75;;;13.68;;
41946;SDS011;27638;42.184;24.848;2024-03-08T03:14:37;28.10;;;13.90;;
41946;SDS011;27638;42.184;24.848;2024-03-08T03:17:05;25.35;;;14.95;;
41946;SDS011;27638;42.184;24.848;2024-03-08T03:19:31;30.70;;;16.15;;
41946;SDS011;27638;42.184;24.848;2024-03-08T03:21:56;28.90;;;14.20;;
41946;SDS011;27638;42.184;24.848;2024-03-08T03:24:22;24.63;;;13.55;;
41946;SDS011;27638;42.184;24.848;2024-03-08T03:26:48;30.10;;;15.90;;
41946;SDS011;27638;42.184;24.848;2024-03-08T03:29:14;32.47;;;16.10;;
41946;SDS011;27638;42.184;24.848;2024-03-08T03:31:42;29.92;;;14.98;;
41946;SDS011;27638;42.184;24.848;2024-03-08T03:34:10;31.98;;;15.55;;
41946;SDS011;27638;42.184;24.848;2024-03-08T03:36:37;34.38;;;17.23;;
41946;SDS011;27638;42.184;24.848;2024-03-08T03:39:07;31.15;;;16.10;;
41946;SDS011;27638;42.184;24.848;2024-03-08T03:41:38;32.53;;;16.75;;
41946;SDS011;27638;42.184;24.848;2024-03-08T03:44:04;31.65;;;15.60;;
41946;SDS011;27638;42.184;24.848;2024-03-08T03:46:31;33.75;;;18.15;;
41946;SDS011;27638;42.184;24.848;2024-03-08T03:48:57;35.90;;;16.90;;
41946;SDS011;27638;42.184;24.848;2024-03-08T03:51:23;33.08;;;16.55;;
41946;SDS011;27638;42.184;24.848;2024-03-08T03:53:49;34.85;;;17.10;;
41946;SDS011;27638;42.184;24.848;2024-03-08T03:56:15;36.60;;;17.00;;
41946;SDS011;27638;42.184;24.848;2024-03-08T03:58:40;35.40;;;17.58;;
41946;SDS011;27638;42.184;24.848;2024-03-08T04:01:06;34.70;;;17.02;;
41946;SDS011;27638;42.184;24.848;2024-03-08T04:03:31;33.28;;;16.38;;
41946;SDS011;27638;42.184;24.848;2024-03-08T04:05:57;32.78;;;16.92;;
41946;SDS011;27638;42.184;24.848;2024-03-08T04:08:22;32.28;;;15.75;;
41946;SDS011;27638;42.184;24.848;2024-03-08T04:10:51;34.88;;;16.58;;
41946;SDS011;27638;42.184;24.848;2024-03-08T04:13:16;37.78;;;17.63;;
41946;SDS011;27638;42.184;24.848;2024-03-08T04:15:42;35.58;;;17.10;;
41946;SDS011;27638;42.184;24.848;2024-03-08T04:18:10;35.70;;;16.58;;
41946;SDS011;27638;42.184;24.848;2024-03-08T04:20:35;34.15;;;15.20;;
41946;SDS011;27638;42.184;24.848;2024-03-08T04:23:01;35.78;;;17.42;;
41946;SDS011;27638;42.184;24.848;2024-03-08T04:25:27;32.22;;;15.20;;
41946;SDS011;27638;42.184;24.848;2024-03-08T04:27:52;32.10;;;16.77;;
41946;SDS011;27638;42.184;24.848;2024-03-08T04:30:18;34.60;;;17.17;;
41946;SDS011;27638;42.184;24.848;2024-03-08T04:32:43;29.63;;;15.30;;
41946;SDS011;27638;42.184;24.848;2024-03-08T04:35:09;32.10;;;15.45;;
41946;SDS011;27638;42.184;24.848;2024-03-08T04:37:34;37.05;;;17.90;;
41946;SDS011;27638;42.184;24.848;2024-03-08T04:40:00;30.85;;;16.58;;
41946;SDS011;27638;42.184;24.848;2024-03-08T04:42:26;25.27;;;14.88;;
41946;SDS011;27638;42.184;24.848;2024-03-08T04:44:53;30.88;;;14.35;;
41946;SDS011;27638;42.184;24.848;2024-03-08T04:47:19;31.35;;;16.17;;
41946;SDS011;27638;42.184;24.848;2024-03-08T04:49:45;35.83;;;17.67;;
41946;SDS011;27638;42.184;24.848;2024-03-08T04:52:11;32.67;;;15.27;;
41946;SDS011;27638;42.184;24.848;2024-03-08T04:54:37;34.00;;;16.75;;
41946;SDS011;27638;42.184;24.848;2024-03-08T04:57:02;34.70;;;17.35;;
41946;SDS011;27638;42.184;24.848;2024-03-08T04:59:29;39.05;;;19.13;;
41946;SDS011;27638;42.184;24.848;2024-03-08T05:01:55;37.00;;;19.40;;
41946;SDS011;27638;42.184;24.848;2024-03-08T05:04:21;37.78;;;17.85;;
41946;SDS011;27638;42.184;24.848;2024-03-08T05:06:47;37.63;;;18.08;;
41946;SDS011;27638;42.184;24.848;2024-03-08T05:09:13;36.90;;;17.08;;
41946;SDS011;27638;42.184;24.848;2024-03-08T05:11:40;38.38;;;19.48;;
41946;SDS011;27638;42.184;24.848;2024-03-08T05:14:06;39.13;;;19.20;;
41946;SDS011;27638;42.184;24.848;2024-03-08T05:16:31;40.05;;;18.63;;
41946;SDS011;27638;42.184;24.848;2024-03-08T05:18:56;37.45;;;17.58;;
41946;SDS011;27638;42.184;24.848;2024-03-08T05:21:22;39.22;;;18.00;;
41946;SDS011;27638;42.184;24.848;2024-03-08T05:23:48;39.70;;;18.92;;
41946;SDS011;27638;42.184;24.848;2024-03-08T05:26:15;37.95;;;18.25;;
41946;SDS011;27638;42.184;24.848;2024-03-08T05:28:41;34.90;;;17.52;;
41946;SDS011;27638;42.184;24.848;2024-03-08T05:31:06;35.38;;;17.25;;
41946;SDS011;27638;42.184;24.848;2024-03-08T05:33:32;36.22;;;17.67;;
41946;SDS011;27638;42.184;24.848;2024-03-08T05:35:59;44.08;;;19.25;;
41946;SDS011;27638;42.184;24.848;2024-03-08T05:38:28;39.05;;;18.52;;
41946;SDS011;27638;42.184;24.848;2024-03-08T05:40:54;35.83;;;18.17;;
41946;SDS011;27638;42.184;24.848;2024-03-08T05:43:20;35.85;;;16.77;;
41946;SDS011;27638;42.184;24.848;2024-03-08T05:45:45;36.05;;;17.30;;
41946;SDS011;27638;42.184;24.848;2024-03-08T05:48:11;42.20;;;19.80;;
41946;SDS011;27638;42.184;24.848;2024-03-08T05:50:38;38.50;;;17.88;;
41946;SDS011;27638;42.184;24.848;2024-03-08T05:53:04;37.10;;;16.73;;
41946;SDS011;27638;42.184;24.848;2024-03-08T05:55:32;41.25;;;17.73;;
41946;SDS011;27638;42.184;24.848;2024-03-08T05:58:01;40.92;;;20.50;;
41946;SDS011;27638;42.184;24.848;2024-03-08T06:00:26;38.40;;;19.20;;
41946;SDS011;27638;42.184;24.848;2024-03-08T06:02:52;44.83;;;20.23;;
41946;SDS011;27638;42.184;24.848;2024-03-08T06:05:18;37.42;;;18.85;;
41946;SDS011;27638;42.184;24.848;2024-03-08T06:07:43;43.88;;;20.25;;
41946;SDS011;27638;42.184;24.848;2024-03-08T06:10:09;39.42;;;18.05;;
41946;SDS011;27638;42.184;24.848;2024-03-08T06:12:37;42.42;;;21.33;;
41946;SDS011;27638;42.184;24.848;2024-03-08T06:15:06;38.58;;;18.02;;
41946;SDS011;27638;42.184;24.848;2024-03-08T06:17:34;40.50;;;18.73;;
41946;SDS011;27638;42.184;24.848;2024-03-08T06:20:00;40.20;;;18.65;;
41946;SDS011;27638;42.184;24.848;2024-03-08T06:22:25;37.33;;;18.50;;
41946;SDS011;27638;42.184;24.848;2024-03-08T06:24:51;41.53;;;19.33;;
41946;SDS011;27638;42.184;24.848;2024-03-08T06:27:16;36.85;;;18.13;;
41946;SDS011;27638;42.184;24.848;2024-03-08T06:29:42;42.53;;;20.25;;
41946;SDS011;27638;42.184;24.848;2024-03-08T06:32:08;41.47;;;18.17;;
41946;SDS011;27638;42.184;24.848;2024-03-08T06:34:33;56.55;;;19.38;;
41946;SDS011;27638;42.184;24.848;2024-03-08T06:37:02;39.40;;;19.00;;
41946;SDS011;27638;42.184;24.848;2024-03-08T06:39:27;38.28;;;17.25;;
41946;SDS011;27638;42.184;24.848;2024-03-08T06:41:57;43.55;;;20.60;;
41946;SDS011;27638;42.184;24.848;2024-03-08T06:44:22;38.45;;;17.70;;
41946;SDS011;27638;42.184;24.848;2024-03-08T06:46:48;39.08;;;19.45;;
41946;SDS011;27638;42.184;24.848;2024-03-08T06:49:14;42.88;;;19.40;;
41946;SDS011;27638;42.184;24.848;2024-03-08T06:51:40;38.15;;;18.02;;
41946;SDS011;27638;42.184;24.848;2024-03-08T06:54:06;40.05;;;20.38;;
41946;SDS011;27638;42.184;24.848;2024-03-08T06:56:33;40.40;;;17.67;;
41946;SDS011;27638;42.184;24.848;2024-03-08T06:58:59;41.28;;;18.98;;
41946;SDS011;27638;42.184;24.848;2024-03-08T07:01:25;37.78;;;18.83;;
41946;SDS011;27638;42.184;24.848;2024-03-08T07:03:50;40.35;;;18.88;;
41946;SDS011;27638;42.184;24.848;2024-03-08T07:06:17;38.22;;;17.63;;
41946;SDS011;27638;42.184;24.848;2024-03-08T07:08:44;37.78;;;17.75;;
41946;SDS011;27638;42.184;24.848;2024-03-08T07:11:11;39.42;;;18.58;;
41946;SDS011;27638;42.184;24.848;2024-03-08T07:13:37;37.88;;;20.00;;
41946;SDS011;27638;42.184;24.848;2024-03-08T07:16:04;38.28;;;18.70;;
41946;SDS011;27638;42.184;24.848;2024-03-08T07:18:30;37.47;;;17.25;;
41946;SDS011;27638;42.184;24.848;2024-03-08T07:20:56;36.95;;;18.13;;
41946;SDS011;27638;42.184;24.848;2024-03-08T07:23:21;39.25;;;19.10;;
41946;SDS011;27638;42.184;24.848;2024-03-08T07:28:31;37.63;;;17.45;;
41946;SDS011;27638;42.184;24.848;2024-03-08T07:30:57;40.53;;;18.90;;
41946;SDS011;27638;42.184;24.848;2024-03-08T07:33:58;40.55;;;20.27;;
41946;SDS011;27638;42.184;24.848;2024-03-08T07:36:24;38.92;;;17.05;;
41946;SDS011;27638;42.184;24.848;2024-03-08T07:38:49;34.60;;;16.50;;
41946;SDS011;27638;42.184;24.848;2024-03-08T07:41:15;34.08;;;17.30;;
41946;SDS011;27638;42.184;24.848;2024-03-08T07:43:41;36.75;;;18.30;;
41946;SDS011;27638;42.184;24.848;2024-03-08T07:46:06;36.63;;;16.73;;
41946;SDS011;27638;42.184;24.848;2024-03-08T07:48:34;30.95;;;15.57;;
41946;SDS011;27638;42.184;24.848;2024-03-08T07:51:01;36.28;;;16.63;;
41946;SDS011;27638;42.184;24.848;2024-03-08T07:53:28;27.83;;;15.13;;
41946;SDS011;27638;42.184;24.848;2024-03-08T07:55:53;31.48;;;15.45;;
41946;SDS011;27638;42.184;24.848;2024-03-08T07:58:19;28.30;;;16.05;;
41946;SDS011;27638;42.184;24.848;2024-03-08T08:00:44;30.73;;;15.70;;
41946;SDS011;27638;42.184;24.848;2024-03-08T08:03:10;29.85;;;16.73;;
41946;SDS011;27638;42.184;24.848;2024-03-08T08:05:36;31.50;;;16.48;;
41946;SDS011;27638;42.184;24.848;2024-03-08T08:08:04;32.92;;;15.25;;
41946;SDS011;27638;42.184;24.848;2024-03-08T08:10:32;33.92;;;17.45;;
41946;SDS011;27638;42.184;24.848;2024-03-08T08:12:58;31.60;;;16.45;;
41946;SDS011;27638;42.184;24.848;2024-03-08T08:15:24;35.05;;;17.80;;
41946;SDS011;27638;42.184;24.848;2024-03-08T08:17:49;34.80;;;15.95;;
41946;SDS011;27638;42.184;24.848;2024-03-08T08:20:17;36.78;;;16.13;;
41946;SDS011;27638;42.184;24.848;2024-03-08T08:22:43;33.90;;;16.92;;
41946;SDS011;27638;42.184;24.848;2024-03-08T08:25:09;33.83;;;18.20;;
41946;SDS011;27638;42.184;24.848;2024-03-08T08:27:38;34.97;;;15.70;;
41946;SDS011;27638;42.184;24.848;2024-03-08T08:30:05;30.45;;;16.15;;
41946;SDS011;27638;42.184;24.848;2024-03-08T08:32:33;27.10;;;15.25;;
41946;SDS011;27638;42.184;24.848;2024-03-08T08:35:02;34.97;;;17.55;;
41946;SDS011;27638;42.184;24.848;2024-03-08T08:37:31;33.25;;;15.05;;
41946;SDS011;27638;42.184;24.848;2024-03-08T08:39:57;34.00;;;15.85;;
41946;SDS011;27638;42.184;24.848;2024-03-08T08:42:23;35.95;;;16.00;;
41946;SDS011;27638;42.184;24.848;2024-03-08T08:44:49;29.30;;;16.00;;
41946;SDS011;27638;42.184;24.848;2024-03-08T08:47:15;24.40;;;14.50;;
41946;SDS011;27638;42.184;24.848;2024-03-08T08:49:43;32.35;;;16.17;;
41946;SDS011;27638;42.184;24.848;2024-03-08T08:52:11;31.60;;;15.68;;
41946;SDS011;27638;42.184;24.848;2024-03-08T08:54:36;33.92;;;17.40;;
41946;SDS011;27638;42.184;24.848;2024-03-08T08:57:02;32.67;;;15.05;;
41946;SDS011;27638;42.184;24.848;2024-03-08T08:59:32;27.50;;;13.80;;
41946;SDS011;27638;42.184;24.848;2024-03-08T09:02:01;26.92;;;14.45;;
41946;SDS011;27638;42.184;24.848;2024-03-08T09:04:28;35.55;;;16.25;;
41946;SDS011;27638;42.184;24.848;2024-03-08T09:06:55;30.25;;;14.98;;
41946;SDS011;27638;42.184;24.848;2024-03-08T09:09:21;30.77;;;14.52;;
41946;SDS011;27638;42.184;24.848;2024-03-08T09:11:47;29.33;;;14.85;;
41946;SDS011;27638;42.184;24.848;2024-03-08T09:14:14;31.20;;;14.20;;
41946;SDS011;27638;42.184;24.848;2024-03-08T09:16:39;32.22;;;15.20;;
41946;SDS011;27638;42.184;24.848;2024-03-08T09:19:05;31.30;;;15.30;;
41946;SDS011;27638;42.184;24.848;2024-03-08T09:21:32;33.42;;;14.80;;
41946;SDS011;27638;42.184;24.848;2024-03-08T09:24:00;27.73;;;14.27;;
41946;SDS011;27638;42.184;24.848;2024-03-08T09:26:26;29.98;;;14.75;;
41946;SDS011;27638;42.184;24.848;2024-03-08T09:28:52;28.13;;;14.75;;
41946;SDS011;27638;42.184;24.848;2024-03-08T09:31:19;31.90;;;15.30;;
41946;SDS011;27638;42.184;24.848;2024-03-08T09:33:45;27.55;;;14.73;;
41946;SDS011;27638;42.184;24.848;2024-03-08T09:36:11;28.95;;;15.68;;
41946;SDS011;27638;42.184;24.848;2024-03-08T09:38:39;29.83;;;15.77;;
41946;SDS011;27638;42.184;24.848;2024-03-08T09:41:04;27.60;;;13.43;;
41946;SDS011;27638;42.184;24.848;2024-03-08T09:43:30;30.60;;;14.50;;
41946;SDS011;27638;42.184;24.848;2024-03-08T09:45:56;25.83;;;13.32;;
41946;SDS011;27638;42.184;24.848;2024-03-08T09:48:22;27.08;;;14.50;;
41946;SDS011;27638;42.184;24.848;2024-03-08T09:50:48;26.70;;;13.10;;
41946;SDS011;27638;42.184;24.848;2024-03-08T09:53:14;25.40;;;13.52;;
41946;SDS011;27638;42.184;24.848;2024-03-08T09:55:40;22.38;;;13.60;;
41946;SDS011;27638;42.184;24.848;2024-03-08T09:58:11;24.90;;;13.50;;
41946;SDS011;27638;42.184;24.848;2024-03-08T10:00:52;28.40;;;13.13;;
41946;SDS011;27638;42.184;24.848;2024-03-08T10:03:19;27.83;;;13.65;;
41946;SDS011;27638;42.184;24.848;2024-03-08T10:05:45;23.25;;;13.77;;
41946;SDS011;27638;42.184;24.848;2024-03-08T10:08:11;21.67;;;11.70;;
41946;SDS011;27638;42.184;24.848;2024-03-08T10:10:38;26.52;;;14.48;;
41946;SDS011;27638;42.184;24.848;2024-03-08T10:13:06;24.00;;;12.93;;
41946;SDS011;27638;42.184;24.848;2024-03-08T10:15:32;21.55;;;12.18;;
41946;SDS011;27638;42.184;24.848;2024-03-08T10:17:58;21.08;;;11.65;;
41946;SDS011;27638;42.184;24.848;2024-03-08T10:20:24;22.55;;;13.25;;
41946;SDS011;27638;42.184;24.848;2024-03-08T10:22:51;26.17;;;12.40;;
41946;SDS011;27638;42.184;24.848;2024-03-08T10:25:18;20.85;;;11.65;;
41946;SDS011;27638;42.184;24.848;2024-03-08T10:27:44;21.02;;;12.10;;
41946;SDS011;27638;42.184;24.848;2024-03-08T10:30:11;21.75;;;12.23;;
41946;SDS011;27638;42.184;24.848;2024-03-08T10:32:39;20.00;;;10.75;;
41946;SDS011;27638;42.184;24.848;2024-03-08T10:35:09;23.10;;;12.32;;
41946;SDS011;27638;42.184;24.848;2024-03-08T10:37:37;23.60;;;12.50;;
41946;SDS011;27638;42.184;24.848;2024-03-08T10:40:24;21.25;;;12.05;;
41946;SDS011;27638;42.184;24.848;2024-03-08T10:50:45;21.40;;;11.88;;
41946;SDS011;27638;42.184;24.848;2024-03-08T10:53:14;25.80;;;10.90;;
41946;SDS011;27638;42.184;24.848;2024-03-08T10:55:40;20.77;;;10.88;;
41946;SDS011;27638;42.184;24.848;2024-03-08T10:58:06;20.13;;;10.82;;
41946;SDS011;27638;42.184;24.848;2024-03-08T11:00:33;21.45;;;11.63;;
41946;SDS011;27638;42.184;24.848;2024-03-08T11:02:59;17.77;;;9.98;;
41946;SDS011;27638;42.184;24.848;2024-03-08T11:08:20;24.35;;;11.40;;
41946;SDS011;27638;42.184;24.848;2024-03-08T11:10:52;21.23;;;11.57;;
41946;SDS011;27638;42.184;24.848;2024-03-08T11:13:33;22.20;;;10.60;;
41946;SDS011;27638;42.184;24.848;2024-03-08T11:16:06;19.65;;;10.50;;
41946;SDS011;27638;42.184;24.848;2024-03-08T11:18:34;18.92;;;10.27;;
41946;SDS011;27638;42.184;24.848;2024-03-08T11:21:04;21.45;;;10.18;;
41946;SDS011;27638;42.184;24.848;2024-03-08T11:23:37;17.25;;;10.55;;
41946;SDS011;27638;42.184;24.848;2024-03-08T11:26:17;22.20;;;10.90;;
41946;SDS011;27638;42.184;24.848;2024-03-08T11:28:45;19.52;;;10.75;;
41946;SDS011;27638;42.184;24.848;2024-03-08T11:33:39;22.80;;;11.30;;
41946;SDS011;27638;42.184;24.848;2024-03-08T11:36:21;19.92;;;10.77;;
41946;SDS011;27638;42.184;24.848;2024-03-08T11:38:49;17.92;;;10.27;;
41946;SDS011;27638;42.184;24.848;2024-03-08T11:41:20;18.30;;;10.13;;
41946;SDS011;27638;42.184;24.848;2024-03-08T11:43:49;18.63;;;10.15;;
41946;SDS011;27638;42.184;24.848;2024-03-08T11:46:26;18.27;;;9.23;;
41946;SDS011;27638;42.184;24.848;2024-03-08T11:48:54;17.10;;;9.00;;
41946;SDS011;27638;42.184;24.848;2024-03-08T11:51:21;16.95;;;8.73;;
41946;SDS011;27638;42.184;24.848;2024-03-08T11:53:48;17.92;;;8.43;;
41946;SDS011;27638;42.184;24.848;2024-03-08T11:56:15;18.00;;;9.90;;
41946;SDS011;27638;42.184;24.848;2024-03-08T11:58:41;15.18;;;8.80;;
41946;SDS011;27638;42.184;24.848;2024-03-08T12:01:17;14.52;;;8.60;;
41946;SDS011;27638;42.184;24.848;2024-03-08T12:03:43;14.95;;;8.90;;
41946;SDS011;27638;42.184;24.848;2024-03-08T12:06:09;14.82;;;8.20;;
41946;SDS011;27638;42.184;24.848;2024-03-08T12:08:35;13.25;;;7.60;;
41946;SDS011;27638;42.184;24.848;2024-03-08T12:11:03;13.18;;;7.80;;
41946;SDS011;27638;42.184;24.848;2024-03-08T12:13:29;16.20;;;8.02;;
41946;SDS011;27638;42.184;24.848;2024-03-08T12:15:57;17.52;;;8.70;;
41946;SDS011;27638;42.184;24.848;2024-03-08T12:18:32;12.20;;;7.80;;
41946;SDS011;27638;42.184;24.848;2024-03-08T12:21:08;15.25;;;8.00;;
41946;SDS011;27638;42.184;24.848;2024-03-08T12:23:35;13.13;;;7.28;;
41946;SDS011;27638;42.184;24.848;2024-03-08T12:26:15;12.82;;;7.18;;
41946;SDS011;27638;42.184;24.848;2024-03-08T12:28:48;15.25;;;7.85;;
41946;SDS011;27638;42.184;24.848;2024-03-08T12:31:17;13.30;;;7.10;;
41946;SDS011;27638;42.184;24.848;2024-03-08T12:33:54;12.90;;;6.88;;
41946;SDS011;27638;42.184;24.848;2024-03-08T12:36:24;14.32;;;8.05;;
41946;SDS011;27638;42.184;24.848;2024-03-08T12:38:50;13.23;;;7.57;;
41946;SDS011;27638;42.184;24.848;2024-03-08T12:41:19;11.02;;;6.05;;
41946;SDS011;27638;42.184;24.848;2024-03-08T12:43:46;11.93;;;7.15;;
41946;SDS011;27638;42.184;24.848;2024-03-08T12:46:16;11.57;;;6.03;;
41946;SDS011;27638;42.184;24.848;2024-03-08T12:48:45;13.30;;;6.80;;
41946;SDS011;27638;42.184;24.848;2024-03-08T12:51:15;11.45;;;6.95;;
41946;SDS011;27638;42.184;24.848;2024-03-08T12:53:43;15.93;;;7.43;;
41946;SDS011;27638;42.184;24.848;2024-03-08T12:56:12;12.57;;;6.78;;
41946;SDS011;27638;42.184;24.848;2024-03-08T12:58:57;9.95;;;6.55;;
41946;SDS011;27638;42.184;24.848;2024-03-08T13:01:23;10.32;;;6.15;;
41946;SDS011;27638;42.184;24.848;2024-03-08T13:03:49;13.65;;;7.88;;
41946;SDS011;27638;42.184;24.848;2024-03-08T13:06:17;11.27;;;6.97;;
41946;SDS011;27638;42.184;24.848;2024-03-08T13:08:46;12.73;;;7.40;;
41946;SDS011;27638;42.184;24.848;2024-03-08T13:11:13;16.85;;;8.52;;
41946;SDS011;27638;42.184;24.848;2024-03-08T13:13:42;17.27;;;9.40;;
41946;SDS011;27638;42.184;24.848;2024-03-08T13:16:09;15.73;;;8.93;;
41946;SDS011;27638;42.184;24.848;2024-03-08T13:18:36;13.60;;;7.95;;
41946;SDS011;27638;42.184;24.848;2024-03-08T13:21:02;12.90;;;7.78;;
41946;SDS011;27638;42.184;24.848;2024-03-08T13:23:32;13.98;;;8.45;;
41946;SDS011;27638;42.184;24.848;2024-03-08T13:26:04;14.80;;;8.45;;
41946;SDS011;27638;42.184;24.848;2024-03-08T13:28:33;14.13;;;8.75;;
41946;SDS011;27638;42.184;24.848;2024-03-08T13:31:05;12.32;;;7.47;;
41946;SDS011;27638;42.184;24.848;2024-03-08T13:33:35;12.02;;;7.40;;
41946;SDS011;27638;42.184;24.848;2024-03-08T13:36:05;13.63;;;7.68;;
41946;SDS011;27638;42.184;24.848;2024-03-08T13:38:34;17.20;;;8.85;;
41946;SDS011;27638;42.184;24.848;2024-03-08T13:41:01;12.63;;;8.73;;
41946;SDS011;27638;42.184;24.848;2024-03-08T13:43:28;11.88;;;7.75;;
41946;SDS011;27638;42.184;24.848;2024-03-08T13:45:53;14.93;;;8.50;;
41946;SDS011;27638;42.184;24.848;2024-03-08T13:48:19;12.25;;;7.30;;
41946;SDS011;27638;42.184;24.848;2024-03-08T13:50:47;12.70;;;7.32;;
41946;SDS011;27638;42.184;24.848;2024-03-08T13:53:13;12.57;;;7.25;;
41946;SDS011;27638;42.184;24.848;2024-03-08T13:55:40;10.05;;;6.25;;
41946;SDS011;27638;42.184;24.848;2024-03-08T13:58:05;10.27;;;6.47;;
41946;SDS011;27638;42.184;24.848;2024-03-08T14:00:34;15.45;;;8.15;;
41946;SDS011;27638;42.184;24.848;2024-03-08T14:03:01;12.35;;;7.90;;
41946;SDS011;27638;42.184;24.848;2024-03-08T14:05:30;15.48;;;7.90;;
41946;SDS011;27638;42.184;24.848;2024-03-08T14:08:00;14.73;;;9.02;;
41946;SDS011;27638;42.184;24.848;2024-03-08T14:10:28;13.55;;;8.05;;
41946;SDS011;27638;42.184;24.848;2024-03-08T14:12:56;12.43;;;8.10;;
41946;SDS011;27638;42.184;24.848;2024-03-08T14:15:22;12.32;;;8.18;;
41946;SDS011;27638;42.184;24.848;2024-03-08T14:17:54;15.63;;;7.65;;
41946;SDS011;27638;42.184;24.848;2024-03-08T14:20:20;13.10;;;8.25;;
41946;SDS011;27638;42.184;24.848;2024-03-08T14:22:50;15.63;;;9.13;;
41946;SDS011;27638;42.184;24.848;2024-03-08T14:25:16;19.65;;;11.05;;
41946;SDS011;27638;42.184;24.848;2024-03-08T14:27:45;15.43;;;9.95;;